Time;durP1;ratioP1;P1;durP2;ratioP2;P2;SDS_P1;SDS_P2;PMS_P1;PMS_P2;Temp;Humidity;BMP_temperature;BMP_pressure;BME280_temperature;BME280_humidity;BME280_pressure;Samples;Min_cycle;Max_cycle;Signal;HPM_P1;HPM_P2
2021/05/03 00:00:58;;;;;;;6.38;3.83;;;;;;;;;;4955061;28;20034;-86
2021/05/03 00:03:44;;;;;;;8.18;4.60;;;;;;;;;;4958771;28;20074;-86
2021/05/03 00:06:29;;;;;;;6.75;4.15;;;;;;;;;;4950934;28;20027;-86
2021/05/03 00:09:14;;;;;;;9.00;4.40;;;;;;;;;;4963533;28;20026;-86
2021/05/03 00:12:00;;;;;;;6.47;4.35;;;;;;;;;;4957800;28;20054;-86
2021/05/03 00:14:45;;;;;;;6.88;4.47;;;;;;;;;;4955360;28;20291;-86
2021/05/03 00:17:30;;;;;;;6.93;4.38;;;;;;;;;;4956485;28;20133;-86
2021/05/03 00:20:15;;;;;;;6.55;4.65;;;;;;;;;;4949628;28;20130;-87
2021/05/03 00:23:01;;;;;;;6.68;4.32;;;;;;;;;;4960452;28;20050;-87
2021/05/03 00:25:46;;;;;;;8.70;4.57;;;;;;;;;;4957900;28;20096;-86
2021/05/03 00:28:32;;;;;;;8.10;4.93;;;;;;;;;;4957205;28;20524;-86
2021/05/03 00:31:17;;;;;;;6.95;4.60;;;;;;;;;;4953591;28;20032;-86
2021/05/03 00:34:03;;;;;;;7.57;4.45;;;;;;;;;;4954354;28;20378;-85
2021/05/03 00:36:48;;;;;;;7.00;4.30;;;;;;;;;;4952899;28;20050;-85
2021/05/03 00:39:33;;;;;;;6.70;4.85;;;;;;;;;;4958548;28;20034;-85
2021/05/03 00:42:19;;;;;;;6.63;4.45;;;;;;;;;;4957952;28;20022;-86
2021/05/03 00:45:08;;;;;;;7.47;4.90;;;;;;;;;;4957742;28;20482;-87
2021/05/03 00:47:53;;;;;;;5.97;3.92;;;;;;;;;;4960241;28;20027;-84
2021/05/03 00:50:39;;;;;;;5.10;3.42;;;;;;;;;;4955737;28;20030;-85
2021/05/03 00:53:24;;;;;;;7.57;4.35;;;;;;;;;;4952575;28;20259;-87
2021/05/03 00:56:09;;;;;;;7.45;4.38;;;;;;;;;;4954077;28;20019;-86
2021/05/03 00:58:54;;;;;;;8.32;3.80;;;;;;;;;;4959996;28;20540;-86
2021/05/03 01:01:40;;;;;;;6.53;4.38;;;;;;;;;;4956032;28;20492;-86
2021/05/03 01:04:25;;;;;;;5.97;4.30;;;;;;;;;;4956346;28;20113;-85
2021/05/03 01:07:16;;;;;;;9.50;4.25;;;;;;;;;;4960008;28;20541;-86
2021/05/03 01:10:01;;;;;;;7.13;4.80;;;;;;;;;;4953502;28;20484;-86
2021/05/03 01:12:48;;;;;;;7.55;4.18;;;;;;;;;;4952741;28;20026;-86
2021/05/03 01:15:33;;;;;;;7.85;4.10;;;;;;;;;;4957234;28;20493;-84
2021/05/03 01:18:24;;;;;;;9.13;4.80;;;;;;;;;;4959260;28;20480;-87
2021/05/03 01:21:09;;;;;;;7.13;4.45;;;;;;;;;;4959460;28;20027;-85
2021/05/03 01:23:55;;;;;;;6.30;4.30;;;;;;;;;;4957392;28;20029;-85
2021/05/03 01:26:40;;;;;;;5.88;3.92;;;;;;;;;;4953221;28;20048;-85
2021/05/03 01:29:26;;;;;;;7.47;4.28;;;;;;;;;;4950962;28;21265;-86
2021/05/03 01:32:11;;;;;;;8.27;4.93;;;;;;;;;;4961901;28;20053;-84
2021/05/03 01:34:56;;;;;;;7.85;4.97;;;;;;;;;;4945060;28;20030;-84
2021/05/03 01:37:42;;;;;;;8.00;4.53;;;;;;;;;;4954449;28;20658;-84
2021/05/03 01:40:28;;;;;;;7.35;4.68;;;;;;;;;;4955138;28;20094;-84
2021/05/03 01:43:16;;;;;;;10.45;5.60;;;;;;;;;;4947067;28;20030;-85
2021/05/03 01:46:01;;;;;;;9.27;5.22;;;;;;;;;;4951596;28;20030;-85
2021/05/03 01:48:47;;;;;;;7.93;5.00;;;;;;;;;;4962465;28;20524;-87
2021/05/03 01:51:34;;;;;;;9.10;5.32;;;;;;;;;;4954293;28;20042;-86
2021/05/03 01:54:20;;;;;;;7.03;4.78;;;;;;;;;;4956166;28;20031;-85
2021/05/03 01:57:05;;;;;;;7.90;5.13;;;;;;;;;;4955204;28;20363;-84
2021/05/03 01:59:53;;;;;;;7.68;5.22;;;;;;;;;;4955279;28;20027;-85
2021/05/03 02:02:38;;;;;;;8.02;4.90;;;;;;;;;;4950731;28;20106;-85
2021/05/03 02:05:24;;;;;;;10.73;5.75;;;;;;;;;;4953758;28;20034;-85
2021/05/03 02:08:09;;;;;;;9.13;5.53;;;;;;;;;;4955716;28;20033;-86
2021/05/03 02:10:55;;;;;;;6.90;4.53;;;;;;;;;;4953222;28;20019;-85
2021/05/03 02:13:40;;;;;;;9.20;5.60;;;;;;;;;;4958303;28;20088;-86
2021/05/03 02:16:25;;;;;;;9.15;5.60;;;;;;;;;;4953739;28;20030;-86
2021/05/03 02:19:10;;;;;;;8.20;5.30;;;;;;;;;;4956901;28;20022;-86
2021/05/03 02:21:56;;;;;;;7.90;5.18;;;;;;;;;;4948621;28;20031;-87
2021/05/03 02:24:41;;;;;;;11.10;5.47;;;;;;;;;;4959389;28;20047;-86
2021/05/03 02:27:26;;;;;;;9.52;5.22;;;;;;;;;;4952024;28;20366;-83
2021/05/03 02:30:12;;;;;;;9.80;5.70;;;;;;;;;;4955270;28;20023;-86
2021/05/03 02:32:57;;;;;;;10.18;6.18;;;;;;;;;;4952082;28;20058;-86
2021/05/03 02:35:42;;;;;;;9.88;6.15;;;;;;;;;;4954993;28;20052;-85
2021/05/03 02:38:30;;;;;;;9.18;5.85;;;;;;;;;;4957955;28;20041;-84
2021/05/03 02:41:15;;;;;;;9.15;5.82;;;;;;;;;;4960134;28;20114;-84
2021/05/03 02:44:01;;;;;;;9.30;6.25;;;;;;;;;;4958075;28;20121;-84
2021/05/03 02:46:46;;;;;;;11.05;7.15;;;;;;;;;;4959610;28;20030;-84
2021/05/03 02:49:31;;;;;;;9.68;6.28;;;;;;;;;;4954311;28;20101;-83
2021/05/03 02:52:19;;;;;;;10.18;6.85;;;;;;;;;;4956771;28;20501;-84
2021/05/03 02:55:05;;;;;;;10.13;6.03;;;;;;;;;;4965836;28;20034;-85
2021/05/03 02:57:50;;;;;;;11.75;6.70;;;;;;;;;;4958878;28;20120;-85
2021/05/03 03:00:36;;;;;;;9.40;6.95;;;;;;;;;;4960798;28;20673;-84
2021/05/03 03:03:21;;;;;;;13.48;8.20;;;;;;;;;;4962860;28;20149;-85
2021/05/03 03:06:06;;;;;;;10.52;7.35;;;;;;;;;;4958700;28;20034;-85
2021/05/03 03:08:52;;;;;;;10.90;7.65;;;;;;;;;;4952990;28;20030;-85
2021/05/03 03:11:38;;;;;;;11.07;7.88;;;;;;;;;;4959489;28;20448;-85
2021/05/03 03:14:23;;;;;;;10.40;7.50;;;;;;;;;;4955445;28;20033;-85
2021/05/03 03:17:08;;;;;;;12.80;8.35;;;;;;;;;;4951871;28;20042;-85
2021/05/03 03:19:53;;;;;;;10.27;7.60;;;;;;;;;;4953721;28;20041;-85
2021/05/03 03:22:39;;;;;;;10.63;7.13;;;;;;;;;;4957591;28;20109;-85
2021/05/03 03:25:25;;;;;;;14.27;7.82;;;;;;;;;;4956777;28;20152;-86
2021/05/03 03:28:11;;;;;;;10.52;7.63;;;;;;;;;;4958232;28;20030;-85
2021/05/03 03:30:56;;;;;;;14.05;7.20;;;;;;;;;;4946482;28;20071;-85
2021/05/03 03:33:41;;;;;;;11.45;8.40;;;;;;;;;;4963320;28;20031;-85
2021/05/03 03:36:27;;;;;;;11.77;7.93;;;;;;;;;;4953749;28;20042;-85
2021/05/03 03:39:12;;;;;;;11.23;7.80;;;;;;;;;;4957309;28;20041;-86
2021/05/03 03:41:57;;;;;;;10.55;6.88;;;;;;;;;;4965806;28;20027;-85
2021/05/03 03:44:43;;;;;;;11.98;7.97;;;;;;;;;;4956001;28;20022;-86
2021/05/03 03:47:28;;;;;;;14.57;8.80;;;;;;;;;;4955434;28;20375;-86
2021/05/03 03:50:13;;;;;;;10.73;7.25;;;;;;;;;;4957688;28;20692;-87
2021/05/03 03:52:58;;;;;;;12.43;8.30;;;;;;;;;;4960796;28;20030;-85
2021/05/03 03:55:44;;;;;;;13.25;8.32;;;;;;;;;;4962205;28;20107;-86
2021/05/03 03:58:29;;;;;;;13.20;8.65;;;;;;;;;;4954504;28;20072;-85
2021/05/03 04:01:14;;;;;;;11.15;8.10;;;;;;;;;;4954333;28;20019;-85
2021/05/03 04:04:03;;;;;;;12.60;9.05;;;;;;;;;;4955911;28;20053;-85
2021/05/03 04:06:57;;;;;;;11.80;7.80;;;;;;;;;;4967872;28;21726;-85
2021/05/03 04:10:26;;;;;;;12.90;7.75;;;;;;;;;;4969990;28;20022;-85
2021/05/03 04:25:24;;;;;;;13.00;8.60;;;;;;;;;;4963813;28;20056;-85
2021/05/03 04:28:09;;;;;;;13.00;8.48;;;;;;;;;;4950583;28;20018;-84
2021/05/03 04:30:54;;;;;;;10.95;7.68;;;;;;;;;;4958923;28;20108;-84
2021/05/03 04:33:40;;;;;;;12.52;9.02;;;;;;;;;;4956531;28;20037;-85
2021/05/03 04:36:25;;;;;;;13.23;8.80;;;;;;;;;;4961173;28;20584;-85
2021/05/03 04:39:10;;;;;;;12.95;8.10;;;;;;;;;;4952108;28;20154;-85
2021/05/03 04:41:55;;;;;;;14.30;9.40;;;;;;;;;;4960770;28;20121;-85
2021/05/03 04:44:41;;;;;;;16.25;8.98;;;;;;;;;;4947271;28;20402;-85
2021/05/03 04:47:26;;;;;;;14.65;9.93;;;;;;;;;;4954501;28;20032;-85
2021/05/03 04:50:11;;;;;;;11.55;8.18;;;;;;;;;;4961718;28;20505;-85
2021/05/03 04:52:57;;;;;;;13.52;8.75;;;;;;;;;;4958056;28;20110;-85
2021/05/03 04:55:42;;;;;;;13.02;9.18;;;;;;;;;;4956622;28;20174;-85
2021/05/03 04:58:28;;;;;;;14.32;9.68;;;;;;;;;;4952576;28;20456;-85
2021/05/03 05:01:13;;;;;;;15.00;9.45;;;;;;;;;;4953358;28;20026;-85
2021/05/03 05:03:58;;;;;;;12.65;8.10;;;;;;;;;;4950088;28;20054;-88
2021/05/03 05:06:43;;;;;;;11.00;7.72;;;;;;;;;;4954869;28;20385;-86
2021/05/03 05:09:29;;;;;;;15.45;8.57;;;;;;;;;;4953569;28;20026;-84
2021/05/03 05:12:14;;;;;;;13.63;8.27;;;;;;;;;;4953437;28;20015;-85
2021/05/03 05:14:59;;;;;;;12.65;9.27;;;;;;;;;;4951460;28;20547;-85
2021/05/03 05:17:46;;;;;;;12.10;8.05;;;;;;;;;;4959890;28;20474;-85
2021/05/03 05:20:31;;;;;;;12.30;9.48;;;;;;;;;;4958276;28;20122;-87
2021/05/03 05:23:16;;;;;;;14.82;9.65;;;;;;;;;;4947427;28;20097;-85
2021/05/03 05:26:02;;;;;;;13.73;9.18;;;;;;;;;;4953879;28;20055;-85
2021/05/03 05:28:47;;;;;;;14.82;9.52;;;;;;;;;;4950992;28;20030;-85
2021/05/03 05:31:32;;;;;;;13.65;9.02;;;;;;;;;;4955055;28;20507;-85
2021/05/03 05:34:18;;;;;;;14.82;9.68;;;;;;;;;;4946296;28;20033;-85
2021/05/03 05:37:03;;;;;;;14.85;9.45;;;;;;;;;;4958315;28;20039;-88
2021/05/03 05:39:48;;;;;;;14.13;8.88;;;;;;;;;;4952241;28;20014;-90
2021/05/03 05:42:34;;;;;;;12.35;7.65;;;;;;;;;;4947005;28;20041;-84
2021/05/03 05:45:19;;;;;;;13.93;8.45;;;;;;;;;;4951768;28;20053;-84
2021/05/03 05:48:04;;;;;;;11.40;7.82;;;;;;;;;;4956185;28;20037;-83
2021/05/03 05:50:49;;;;;;;11.00;7.72;;;;;;;;;;4952748;28;20019;-86
2021/05/03 05:53:35;;;;;;;11.63;7.80;;;;;;;;;;4948976;28;20513;-86
2021/05/03 05:56:20;;;;;;;12.80;9.15;;;;;;;;;;4947548;28;20026;-85
2021/05/03 05:59:06;;;;;;;10.98;8.55;;;;;;;;;;4940079;28;20089;-83
2021/05/03 06:01:52;;;;;;;13.45;8.77;;;;;;;;;;4950328;28;20478;-86
2021/05/03 06:04:37;;;;;;;13.82;11.00;;;;;;;;;;4942560;28;20093;-82
2021/05/03 06:07:22;;;;;;;10.98;7.88;;;;;;;;;;4944683;28;20374;-82
2021/05/03 06:10:07;;;;;;;13.00;8.55;;;;;;;;;;4950354;28;20018;-84
2021/05/03 06:12:53;;;;;;;9.70;7.57;;;;;;;;;;4957388;28;20031;-85
2021/05/03 06:15:38;;;;;;;13.32;7.68;;;;;;;;;;4953508;28;20149;-82
2021/05/03 06:18:23;;;;;;;11.68;7.05;;;;;;;;;;4953645;28;20080;-84
2021/05/03 06:21:08;;;;;;;12.20;8.05;;;;;;;;;;4953584;28;20027;-86
2021/05/03 06:24:06;;;;;;;11.48;7.03;;;;;;;;;;4945289;28;20045;-85
2021/05/03 06:26:51;;;;;;;10.15;7.53;;;;;;;;;;4960462;28;20397;-84
2021/05/03 06:29:37;;;;;;;10.55;7.45;;;;;;;;;;4959445;28;20058;-83
2021/05/03 06:32:26;;;;;;;10.75;6.60;;;;;;;;;;4954858;28;20026;-83
2021/05/03 06:35:11;;;;;;;9.80;7.38;;;;;;;;;;4960448;28;20062;-83
2021/05/03 06:37:56;;;;;;;12.38;7.18;;;;;;;;;;4957010;28;20128;-83
2021/05/03 06:40:42;;;;;;;12.82;6.78;;;;;;;;;;4961553;28;20029;-85
2021/05/03 06:43:29;;;;;;;9.02;6.18;;;;;;;;;;4959152;28;20034;-88
2021/05/03 06:46:14;;;;;;;11.73;6.90;;;;;;;;;;4959790;28;20019;-86
2021/05/03 06:49:00;;;;;;;13.25;7.43;;;;;;;;;;4961132;28;20025;-86
2021/05/03 06:51:50;;;;;;;27.80;20.80;;;;;;;;;;4958655;28;20069;-84
2021/05/03 06:54:35;;;;;;;;;;;;;;;;;;4965309;28;20026;-85
2021/05/03 06:57:20;;;;;;;13.88;8.10;;;;;;;;;;4959305;28;19932;-85
2021/05/03 07:00:06;;;;;;;10.05;6.30;;;;;;;;;;4955088;28;20109;-86
2021/05/03 07:02:51;;;;;;;10.07;6.90;;;;;;;;;;4961739;28;20038;-82
2021/05/03 07:05:38;;;;;;;7.95;6.05;;;;;;;;;;4958123;28;20023;-82
2021/05/03 07:08:25;;;;;;;12.65;7.25;;;;;;;;;;4944601;28;20056;-83
2021/05/03 07:11:16;;;;;;;11.48;6.80;;;;;;;;;;4956456;28;20023;-84
2021/05/03 07:14:01;;;;;;;10.57;6.85;;;;;;;;;;4955251;28;20093;-84
2021/05/03 07:16:46;;;;;;;9.90;6.07;;;;;;;;;;4960033;28;20059;-84
2021/05/03 07:19:35;;;;;;;10.57;6.07;;;;;;;;;;4962705;28;20026;-85
2021/05/03 07:22:22;;;;;;;12.53;6.30;;;;;;;;;;4963694;28;20034;-86
2021/05/03 07:25:09;;;;;;;10.55;6.95;;;;;;;;;;4957191;28;20125;-87
2021/05/03 07:27:54;;;;;;;8.45;6.63;;;;;;;;;;4961990;28;20129;-85
2021/05/03 07:30:39;;;;;;;23.30;18.08;;;;;;;;;;4960314;28;20031;-85
2021/05/03 07:33:25;;;;;;;10.27;7.07;;;;;;;;;;4956915;28;20023;-85
2021/05/03 07:36:11;;;;;;;8.52;5.40;;;;;;;;;;4957782;28;20390;-84
2021/05/03 07:38:56;;;;;;;8.88;5.68;;;;;;;;;;4954819;28;20031;-86
2021/05/03 07:41:41;;;;;;;8.13;5.78;;;;;;;;;;4955579;28;20029;-84
2021/05/03 07:44:27;;;;;;;12.70;6.72;;;;;;;;;;4954554;28;20631;-84
2021/05/03 07:47:12;;;;;;;7.78;5.97;;;;;;;;;;4957624;28;20129;-85
2021/05/03 07:49:58;;;;;;;11.63;6.25;;;;;;;;;;4959074;28;20026;-85
2021/05/03 07:52:43;;;;;;;10.45;5.90;;;;;;;;;;4963980;28;20022;-85
2021/05/03 07:55:29;;;;;;;8.35;5.72;;;;;;;;;;4958990;28;20031;-84
2021/05/03 07:58:14;;;;;;;10.77;6.43;;;;;;;;;;4952826;28;20031;-86
2021/05/03 08:00:59;;;;;;;11.00;6.25;;;;;;;;;;4962260;28;20127;-90
2021/05/03 08:03:47;;;;;;;10.90;7.28;;;;;;;;;;4960260;28;20031;-89
2021/05/03 08:06:47;;;;;;;16.95;6.78;;;;;;;;;;4956869;28;20027;-89
2021/05/03 08:09:39;;;;;;;9.30;6.85;;;;;;;;;;4965066;28;20026;-89
2021/05/03 08:12:24;;;;;;;8.18;6.43;;;;;;;;;;4959318;28;20023;-91
2021/05/03 08:15:14;;;;;;;11.52;7.13;;;;;;;;;;4954202;28;20026;-89
2021/05/03 08:18:00;;;;;;;9.70;6.80;;;;;;;;;;4966843;28;20026;-88
2021/05/03 08:20:45;;;;;;;10.65;7.10;;;;;;;;;;4962016;28;20027;-87
2021/05/03 08:23:30;;;;;;;10.90;7.43;;;;;;;;;;4957298;28;20069;-91
2021/05/03 08:26:16;;;;;;;10.35;6.57;;;;;;;;;;4960811;28;20106;-89
2021/05/03 08:29:04;;;;;;;11.05;7.68;;;;;;;;;;4959633;28;20533;-88
2021/05/03 08:31:50;;;;;;;13.90;7.55;;;;;;;;;;4960873;28;20027;-90
2021/05/03 08:34:35;;;;;;;12.02;7.05;;;;;;;;;;4962237;28;20033;-91
2021/05/03 08:37:20;;;;;;;11.57;7.20;;;;;;;;;;4945054;28;20023;-89
2021/05/03 08:40:06;;;;;;;11.00;7.30;;;;;;;;;;4956405;28;20042;-90
2021/05/03 08:42:51;;;;;;;13.15;9.13;;;;;;;;;;4957898;28;20023;-89
2021/05/03 08:45:39;;;;;;;21.58;14.70;;;;;;;;;;4955141;28;20393;-89
2021/05/03 08:48:56;;;;;;;10.05;7.30;;;;;;;;;;4958335;28;20655;-91
2021/05/03 08:54:36;;;;;;;12.65;6.78;;;;;;;;;;4955004;28;20070;-90
2021/05/03 08:57:21;;;;;;;8.25;6.90;;;;;;;;;;4942366;28;20125;-90
2021/05/03 09:00:11;;;;;;;11.63;6.68;;;;;;;;;;4951279;28;20050;-91
2021/05/03 09:03:03;;;;;;;;;;;;;;;;;;4969169;28;20027;-91
2021/05/03 09:06:09;;;;;;;13.13;8.27;;;;;;;;;;4947093;28;19915;-84
2021/05/03 09:09:07;;;;;;;10.55;6.93;;;;;;;;;;4959402;28;20022;-90
2021/05/03 09:12:03;;;;;;;11.90;7.78;;;;;;;;;;4954676;28;20055;-85
2021/05/03 09:14:56;;;;;;;11.93;7.35;;;;;;;;;;4961230;28;20070;-83
2021/05/03 09:17:42;;;;;;;12.18;6.20;;;;;;;;;;4954104;28;20030;-84
2021/05/03 09:20:29;;;;;;;35.00;27.67;;;;;;;;;;4956689;28;20023;-86
2021/05/03 09:23:23;;;;;;;10.30;8.20;;;;;;;;;;4956821;28;20035;-85
2021/05/03 09:26:08;;;;;;;10.52;6.53;;;;;;;;;;4943781;28;20050;-87
2021/05/03 09:28:54;;;;;;;10.95;7.00;;;;;;;;;;4953728;28;20097;-86
2021/05/03 09:31:55;;;;;;;11.20;7.53;;;;;;;;;;4956779;28;20045;-85
2021/05/03 09:34:40;;;;;;;10.63;6.88;;;;;;;;;;4939637;28;20446;-84
2021/05/03 09:37:34;;;;;;;11.48;7.10;;;;;;;;;;4958561;28;20026;-86
2021/05/03 09:40:20;;;;;;;9.95;6.20;;;;;;;;;;4959139;28;20019;-84
2021/05/03 09:43:05;;;;;;;13.18;6.30;;;;;;;;;;4951404;28;20057;-87
2021/05/03 09:45:50;;;;;;;11.27;5.97;;;;;;;;;;4959154;28;20027;-85
2021/05/03 09:48:37;;;;;;;10.43;5.55;;;;;;;;;;4962352;28;20022;-85
2021/05/03 09:51:32;;;;;;;7.93;4.35;;;;;;;;;;4953005;28;20030;-87
2021/05/03 09:54:30;;;;;;;6.20;3.72;;;;;;;;;;4953216;28;20482;-85
2021/05/03 09:57:16;;;;;;;7.68;4.00;;;;;;;;;;4958124;28;20208;-86
2021/05/03 10:00:03;;;;;;;6.50;4.13;;;;;;;;;;4955885;28;20118;-86
2021/05/03 10:02:48;;;;;;;8.48;4.90;;;;;;;;;;4950722;28;20050;-84
2021/05/03 10:05:33;;;;;;;6.35;4.57;;;;;;;;;;4953441;28;20029;-87
2021/05/03 10:08:19;;;;;;;8.70;4.07;;;;;;;;;;4951704;28;20034;-85
2021/05/03 10:11:12;;;;;;;8.82;5.25;;;;;;;;;;4949001;28;20038;-83
2021/05/03 10:13:57;;;;;;;6.20;4.38;;;;;;;;;;4958235;28;20035;-85
2021/05/03 10:16:44;;;;;;;8.63;4.88;;;;;;;;;;4951973;28;20287;-82
2021/05/03 10:19:29;;;;;;;6.75;4.22;;;;;;;;;;4951264;28;20109;-84
2021/05/03 10:22:16;;;;;;;7.25;3.80;;;;;;;;;;4945893;28;20446;-84
2021/05/03 10:25:04;;;;;;;6.03;4.22;;;;;;;;;;4945119;28;20049;-83
2021/05/03 10:27:51;;;;;;;9.20;3.92;;;;;;;;;;4945017;28;20060;-84
2021/05/03 10:30:44;;;;;;;6.13;3.35;;;;;;;;;;4951530;28;20027;-83
2021/05/03 10:33:33;;;;;;;9.32;5.07;;;;;;;;;;4951302;28;20125;-84
2021/05/03 10:36:38;;;;;;;18.08;12.77;;;;;;;;;;4953049;28;20019;-83
2021/05/03 10:39:41;;;;;;;8.18;3.17;;;;;;;;;;4939695;28;20041;-84
2021/05/03 10:42:26;;;;;;;5.32;2.78;;;;;;;;;;4951370;28;20113;-82
2021/05/03 10:45:14;;;;;;;5.05;3.30;;;;;;;;;;4949327;28;20115;-83
2021/05/03 10:48:01;;;;;;;4.82;3.28;;;;;;;;;;4950826;28;20109;-82
2021/05/03 10:50:49;;;;;;;7.50;3.40;;;;;;;;;;4963011;28;20022;-83
2021/05/03 10:53:38;;;;;;;7.03;4.00;;;;;;;;;;4951103;28;20022;-87
2021/05/03 10:56:39;;;;;;;5.82;4.07;;;;;;;;;;4948836;28;20528;-84
2021/05/03 10:59:25;;;;;;;3.75;3.05;;;;;;;;;;4960417;28;20030;-81
2021/05/03 11:02:15;;;;;;;5.20;3.08;;;;;;;;;;4955463;28;20029;-83
2021/05/03 11:05:09;;;;;;;5.07;2.75;;;;;;;;;;4961070;28;20089;-82
2021/05/03 11:08:04;;;;;;;4.45;2.20;;;;;;;;;;4962019;28;20023;-82
2021/05/03 11:10:57;;;;;;;4.00;2.50;;;;;;;;;;4969449;28;20030;-83
2021/05/03 11:13:48;;;;;;;6.45;3.10;;;;;;;;;;4952442;28;20027;-83
2021/05/03 11:16:34;;;;;;;4.07;2.60;;;;;;;;;;4967036;28;20598;-83
2021/05/03 11:22:40;;;;;;;4.35;2.63;;;;;;;;;;4954603;28;20485;-83
2021/05/03 11:25:28;;;;;;;5.47;2.97;;;;;;;;;;4960956;28;20062;-87
2021/05/03 11:28:21;;;;;;;5.13;2.47;;;;;;;;;;4962881;28;20031;-94
2021/05/03 11:31:14;;;;;;;2.92;2.50;;;;;;;;;;4976471;28;20494;-87
2021/05/03 11:34:11;;;;;;;3.33;2.35;;;;;;;;;;4965561;28;20034;-87
2021/05/03 11:37:00;;;;;;;4.68;2.58;;;;;;;;;;4965886;28;20042;-87
2021/05/03 11:40:13;;;;;;;6.72;2.72;;;;;;;;;;4967912;28;20042;-87
2021/05/03 11:45:49;;;;;;;5.05;2.42;;;;;;;;;;4963340;28;20023;-88
2021/05/03 11:48:34;;;;;;;8.07;2.60;;;;;;;;;;4960020;28;20089;-88
2021/05/03 11:51:20;;;;;;;2.55;2.35;;;;;;;;;;4958266;28;20038;-88
2021/05/03 11:54:07;;;;;;;5.85;2.60;;;;;;;;;;4956223;28;20756;-87
2021/05/03 11:56:57;;;;;;;5.05;2.65;;;;;;;;;;4957508;28;20122;-86
2021/05/03 11:59:42;;;;;;;;;;;;;;;;;;4956181;28;20054;-86
2021/05/03 12:02:30;;;;;;;5.30;2.75;;;;;;;;;;4962149;28;19914;-86
2021/05/03 12:05:16;;;;;;;8.80;2.20;;;;;;;;;;4944580;28;20030;-86
2021/05/03 12:08:12;;;;;;;4.35;2.47;;;;;;;;;;4955844;28;20019;-88
2021/05/03 12:11:05;;;;;;;5.82;2.63;;;;;;;;;;4958108;28;20022;-86
2021/05/03 12:13:52;;;;;;;3.35;2.30;;;;;;;;;;4959159;28;20030;-88
2021/05/03 12:16:38;;;;;;;5.00;2.80;;;;;;;;;;4954967;28;20516;-86
2021/05/03 12:19:24;;;;;;;3.40;2.40;;;;;;;;;;4971020;28;20779;-87
2021/05/03 12:22:09;;;;;;;5.78;2.22;;;;;;;;;;4963004;28;20027;-88
2021/05/03 12:25:04;;;;;;;2.42;2.10;;;;;;;;;;4957319;28;20058;-86
2021/05/03 12:27:53;;;;;;;3.42;2.45;;;;;;;;;;4957697;28;20030;-88
2021/05/03 12:30:39;;;;;;;3.97;2.50;;;;;;;;;;4954003;28;20018;-88
2021/05/03 12:33:25;;;;;;;3.03;2.28;;;;;;;;;;4959942;28;20035;-88
2021/05/03 12:36:12;;;;;;;2.65;1.95;;;;;;;;;;4952482;28;20031;-86
2021/05/03 12:39:07;;;;;;;4.82;2.30;;;;;;;;;;4958814;28;20023;-88
2021/05/03 12:41:53;;;;;;;3.38;2.22;;;;;;;;;;4956695;28;20023;-88
2021/05/03 12:44:40;;;;;;;12.30;6.85;;;;;;;;;;4955085;28;20026;-87
2021/05/03 12:50:34;;;;;;;3.85;2.40;;;;;;;;;;4954427;28;20033;-88
2021/05/03 12:56:17;;;;;;;3.25;2.15;;;;;;;;;;4958426;28;20027;-86
2021/05/03 13:02:07;;;;;;;2.80;2.20;;;;;;;;;;4955305;28;20147;-89
2021/05/03 13:11:20;;;;;;;3.05;2.13;;;;;;;;;;4958267;28;20058;-85
2021/05/03 13:22:32;;;;;;;6.57;1.92;;;;;;;;;;4956299;28;20122;-87
2021/05/03 13:29:35;;;;;;;15.73;10.00;;;;;;;;;;4956260;28;20489;-86
2021/05/03 13:32:24;;;;;;;3.22;2.22;;;;;;;;;;4956496;28;20038;-85
2021/05/03 13:35:09;;;;;;;3.28;2.22;;;;;;;;;;4960222;28;20130;-86
2021/05/03 13:37:55;;;;;;;4.22;2.20;;;;;;;;;;4952446;28;20509;-86
2021/05/03 13:40:41;;;;;;;4.43;1.73;;;;;;;;;;4957884;28;20659;-84
2021/05/03 13:43:29;;;;;;;2.28;1.45;;;;;;;;;;4968816;28;20034;-85
2021/05/03 13:46:14;;;;;;;4.80;1.63;;;;;;;;;;4948594;28;20034;-85
2021/05/03 13:49:00;;;;;;;3.40;2.08;;;;;;;;;;4956635;28;20022;-88
2021/05/03 13:51:45;;;;;;;2.10;1.65;;;;;;;;;;4940143;28;20018;-82
2021/05/03 13:54:30;;;;;;;2.92;1.65;;;;;;;;;;4953740;28;20105;-81
2021/05/03 13:57:16;;;;;;;2.70;2.03;;;;;;;;;;4955119;28;20351;-81
2021/05/03 14:00:03;;;;;;;2.53;1.80;;;;;;;;;;4954405;28;20030;-81
2021/05/03 14:02:48;;;;;;;3.13;2.10;;;;;;;;;;4954010;28;20023;-84
2021/05/03 14:05:34;;;;;;;2.75;1.95;;;;;;;;;;4955204;28;20038;-85
2021/05/03 14:08:19;;;;;;;3.20;1.85;;;;;;;;;;4951725;28;20031;-82
2021/05/03 14:11:06;;;;;;;2.50;1.55;;;;;;;;;;4952140;28;20500;-83
2021/05/03 14:13:54;;;;;;;3.80;1.75;;;;;;;;;;4950245;28;20034;-83
2021/05/03 14:16:40;;;;;;;2.75;1.80;;;;;;;;;;4952615;28;20105;-82
2021/05/03 14:19:30;;;;;;;7.13;4.43;;;;;;;;;;4952892;28;20038;-83
2021/05/03 14:22:16;;;;;;;2.67;1.75;;;;;;;;;;4945970;28;20034;-84
2021/05/03 14:25:02;;;;;;;5.18;2.42;;;;;;;;;;4954708;28;20505;-83
2021/05/03 14:27:49;;;;;;;2.55;1.77;;;;;;;;;;4948657;28;20049;-83
2021/05/03 14:30:51;;;;;;;2.88;1.90;;;;;;;;;;4953018;28;20022;-82
2021/05/03 14:33:37;;;;;;;3.15;1.92;;;;;;;;;;4960174;28;20110;-85
2021/05/03 14:36:22;;;;;;;3.83;1.73;;;;;;;;;;4953757;28;20043;-79
2021/05/03 14:39:08;;;;;;;3.70;1.70;;;;;;;;;;4958162;28;20109;-79
2021/05/03 14:41:53;;;;;;;2.70;1.58;;;;;;;;;;4951070;28;20045;-80
2021/05/03 14:44:38;;;;;;;4.05;1.80;;;;;;;;;;4958693;28;20034;-79
2021/05/03 14:47:28;;;;;;;8.75;2.22;;;;;;;;;;4958724;28;20485;-80
2021/05/03 14:51:12;;;;;;;2.28;1.50;;;;;;;;;;4955408;28;20489;-80
2021/05/03 14:53:28;;;;;;;2.88;2.03;;;;;;;;;;4968057;28;20027;-80
2021/05/03 14:56:16;;;;;;;3.70;1.70;;;;;;;;;;4951870;28;20074;-82
2021/05/03 14:59:02;;;;;;;7.43;2.20;;;;;;;;;;4953563;28;20038;-80
2021/05/03 15:01:47;;;;;;;6.45;3.85;;;;;;;;;;4960796;28;20023;-81
2021/05/03 15:04:32;;;;;;;8.90;5.65;;;;;;;;;;4954969;28;20422;-82
2021/05/03 15:07:18;;;;;;;3.25;1.83;;;;;;;;;;4961117;28;20025;-80
2021/05/03 15:10:06;;;;;;;4.95;2.47;;;;;;;;;;4954685;28;20109;-81
2021/05/03 15:12:54;;;;;;;5.63;2.28;;;;;;;;;;4959691;28;20047;-81
2021/05/03 15:15:55;;;;;;;2.08;1.80;;;;;;;;;;4965939;28;20061;-81
2021/05/03 15:21:33;;;;;;;3.88;1.85;;;;;;;;;;4953593;28;20038;-81
2021/05/03 15:24:18;;;;;;;2.55;2.33;;;;;;;;;;4968808;28;20014;-81
2021/05/03 15:27:15;;;;;;;4.75;1.98;;;;;;;;;;4958405;28;20039;-81
2021/05/03 15:30:13;;;;;;;2.53;1.65;;;;;;;;;;4959553;28;20398;-81
2021/05/03 15:35:46;;;;;;;3.22;1.90;;;;;;;;;;4968758;28;20050;-81
2021/05/03 15:38:31;;;;;;;2.20;1.52;;;;;;;;;;4960698;28;20030;-81
2021/05/03 15:41:18;;;;;;;3.40;2.10;;;;;;;;;;4959491;28;20033;-82
2021/05/03 15:44:10;;;;;;;3.00;1.77;;;;;;;;;;4980294;28;20121;-80
2021/05/03 15:46:55;;;;;;;3.17;1.67;;;;;;;;;;4959637;28;20031;-81
2021/05/03 15:49:41;;;;;;;5.38;1.90;;;;;;;;;;4955969;28;20022;-81
2021/05/03 15:52:26;;;;;;;4.57;2.10;;;;;;;;;;4951946;28;20525;-82
2021/05/03 15:55:11;;;;;;;3.35;2.00;;;;;;;;;;4952240;28;20923;-83
2021/05/03 15:57:57;;;;;;;2.85;1.60;;;;;;;;;;4969866;28;20018;-82
2021/05/03 16:00:43;;;;;;;4.18;2.17;;;;;;;;;;4957351;28;20501;-82
2021/05/03 16:03:30;;;;;;;9.90;2.05;;;;;;;;;;4958520;28;20030;-81
2021/05/03 16:06:18;;;;;;;2.35;1.60;;;;;;;;;;4961189;28;20065;-80
2021/05/03 16:09:03;;;;;;;3.80;1.83;;;;;;;;;;4953361;28;20034;-80
2021/05/03 16:11:49;;;;;;;3.53;2.22;;;;;;;;;;4956982;28;20469;-79
2021/05/03 16:14:34;;;;;;;4.28;1.88;;;;;;;;;;4955860;28;20113;-82
2021/05/03 16:17:19;;;;;;;6.00;2.40;;;;;;;;;;4959516;28;20058;-81
2021/05/03 16:20:04;;;;;;;3.45;1.92;;;;;;;;;;4952427;28;20037;-82
2021/05/03 16:22:50;;;;;;;6.20;1.98;;;;;;;;;;4954126;28;20026;-81
2021/05/03 16:25:36;;;;;;;4.10;1.90;;;;;;;;;;4957778;28;20552;-80
2021/05/03 16:28:21;;;;;;;2.85;1.63;;;;;;;;;;4954325;28;20022;-81
2021/05/03 16:31:07;;;;;;;6.47;4.10;;;;;;;;;;4952260;28;20102;-79
2021/05/03 16:33:52;;;;;;;8.45;5.18;;;;;;;;;;4955656;28;20404;-80
2021/05/03 16:36:38;;;;;;;4.00;2.60;;;;;;;;;;4957447;28;20394;-80
2021/05/03 16:39:23;;;;;;;5.22;2.63;;;;;;;;;;4949126;28;20019;-81
2021/05/03 16:42:08;;;;;;;3.35;2.40;;;;;;;;;;4953088;28;20058;-81
2021/05/03 16:44:54;;;;;;;3.50;2.17;;;;;;;;;;4949596;28;20169;-80
2021/05/03 16:47:39;;;;;;;6.53;3.50;;;;;;;;;;4955113;28;20034;-80
2021/05/03 16:50:24;;;;;;;5.35;3.17;;;;;;;;;;4929075;28;20101;-80
2021/05/03 16:53:10;;;;;;;4.00;2.22;;;;;;;;;;4949208;28;20369;-80
2021/05/03 16:55:55;;;;;;;4.00;2.50;;;;;;;;;;4950627;28;20101;-80
2021/05/03 16:58:40;;;;;;;3.25;1.88;;;;;;;;;;4951088;28;20031;-81
2021/05/03 17:01:26;;;;;;;3.17;1.70;;;;;;;;;;4945579;28;20153;-82
2021/05/03 17:04:11;;;;;;;6.43;3.30;;;;;;;;;;4949320;28;20034;-81
2021/05/03 17:06:56;;;;;;;11.18;6.97;;;;;;;;;;4948869;28;20505;-82
2021/05/03 17:09:41;;;;;;;6.78;3.47;;;;;;;;;;4953431;28;20030;-81
2021/05/03 17:12:27;;;;;;;7.47;3.60;;;;;;;;;;4951182;28;20938;-81
2021/05/03 17:15:12;;;;;;;6.03;3.00;;;;;;;;;;4957576;28;20061;-81
2021/05/03 17:17:57;;;;;;;5.72;2.60;;;;;;;;;;4952180;28;20045;-80
2021/05/03 17:20:43;;;;;;;6.38;2.65;;;;;;;;;;4951995;28;20031;-80
2021/05/03 17:23:28;;;;;;;3.58;2.10;;;;;;;;;;4953436;28;20081;-80
2021/05/03 17:26:13;;;;;;;5.70;2.08;;;;;;;;;;4951526;28;20050;-80
2021/05/03 17:29:04;;;;;;;6.85;2.20;;;;;;;;;;4953058;28;20523;-82
2021/05/03 17:31:49;;;;;;;3.03;2.22;;;;;;;;;;4948322;28;20470;-80